Relevés horaires Beauvechain (Belgique)


Relevés horaires à Beauvechain - Samedi 29 Juill. 2017
Heure UTC1 Température [°C] Vent [km/h] Hum. [%] Pres.4 [hPa] Visi. [Km] Nébu. [octa] Préc.5 [mm] Cond.
2m. Res. Ros. Dir.2 Vit. Moy. Raf.3
23:00 23.2 23.2 15.7 S 5.6 -- 11.1 63 1007.8(-0.8/3h) 20 -- -- --
22:00 23.7 23.7 15.6 S 7.4 -- 11.1 60 1008.1(-0.6/3h) 20 -- -- --
21:00 23.7 23.7 15.4 S 7.4 -- 14.8 60 1008.5(-0.4/3h) 20 -- -- --
20:00 23.7 23.7 15.1 S 7.4 -- 14.8 59 1008.7(-0.4/3h) 20 -- -- --
19:00 24.7 24.7 15.0 S 9.3 -- 14.8 55 1008.7(-1.3/3h) 20 -- -- --
18:00 25.6 25.6 14.8 SSO 9.3 -- 20.4 51 1008.8(-1.8/3h) 20 -- -- --
17:00 26.3 26.3 13.4 SSO 9.3 -- 14.8 45 1009.1(-2.3/3h) 20 -- -- --
16:00 26.8 26.8 12.5 SO 9.3 -- 18.5 41 1010(-2.0/3h) 20 -- -- --
15:00 25.7 25.7 13.8 SSO 11.1 -- 20.4 48 1010.7(-1.8/3h) 20 -- -- --
14:00 25.0 25.0 14.7 SO 13.0 -- 20.4 53 1011.6(-1.1/3h) 20 -- -- --
13:00 22.9 22.9 15.3 SSO 9.3 -- 16.7 62 1012.2(-0.5/3h) 20 -- -- --
12:00 22.5 22.5 15.4 SSO 11.1 -- 20.4 64 1012.7(0.2/3h) 20 -- -- --
11:00 22.1 22.1 14.6 SO 11.1 -- 16.7 62 1012.8(0.2/3h) 20 -- -- --
10:00 21.6 21.6 14.2 SO 11.1 -- 20.4 63 1012.8(0.4/3h) 20 -- -- --
09:00 21.2 21.2 14.0 SO 11.1 -- 20.4 63 1012.6(0.6/3h) 20 -- -- --
08:00 20.5 20.5 14.1 SO 9.3 -- 18.5 67 1012.7(1.0/3h) 20 -- -- --
07:00 19.1 19.1 13.3 SO 13.0 -- 20.4 69 1012.6(1.4/3h) 20 -- -- --
06:00 18.2 18.2 12.8 SO 13.0 -- 18.5 71 1012(0.6/3h) 20 -- 0.1/12h
--
05:00 17.2 17.1 12.1 SSO 11.1 -- 16.7 72 1011.8(0.4/3h) 20 -- -- --
04:00 17.5 17.5 12.3 SSO 9.3 -- 14.8 72 1011.2(-0.6/3h) 20 -- -- --
03:00 17.3 17.2 12.1 SSO 11.1 -- 14.8 71 1011.3(-0.7/3h) 20 -- -- --
02:00 18.0 18.0 12.1 SSO 9.3 -- 14.8 68 1011.3(-1.1/3h) 20 -- -- --
01:00 18.1 18.1 12.0 SSO 9.3 -- 14.8 68 1011.7(-0.8/3h) 20 -- -- --
00:00 18.5 18.5 11.5 S 9.3 -- 14.8 64 1012.1(-1.3/3h) 20 -- 0.1/6h
NA

1 Coordinated Universal Time. Actuellement il est 10:00 locale et 09:00 UTC.

2 Le vent souffle depuis la direction indiquée vers la direction oposée.

3 Les rafales max. sont disponible 40 min après l'heure du relevé.

4 Pour les stations d'altitude (plus de 600m) le géopotentiel du niveau le plus proche de la pression obligatoire est indiqué.

5 Les stations disposant d'un diffuseur peuvent indiquer "trace". Cela signifie que des précipitations ont touchés le sol mais que la quantité est inférieure à 0.1 mm.

Récapitulatif de la journée
Température [°C] Vent [km/h] Ensoleillement4 [h] Precipitations totale5 [mm] Pression [Hpa]
Min1 Max.2 Moy.3 Max. Min Max.
16.1 27.4 0 20.4 0 h 0 min 0 1007.8 1012.8

1 Température minimale relevée entre 18:00 UTC la veille et 18:00 UTC le jour donné.

2 Température maximale relevée entre 06:00 UTC le jour donné et 06:00 UTC le lendemain.

3 Vent moyen de la journée basé sur les relevés horaires.

4 Ensoleillement en heures relevé entre 06:00 UTC la veille et 06:00 UTC le jour donné.

5 Précipitations totales tombées entre 06:00 UTC la jour donné et 06:00 UTC le lendemain.

Graphiques horaires